Amarant — CQSF — position and weather

sailwx.info

Track history (hours):
 
Tides and Currents Weather Stations Pressure Air Temp Water Temp Dewpoint Dewpoint Depression Visibility Wind Speed Wind Dir Waves Ship Positions

Amarant

Last reported at 2014-Nov-27 10:33 UTC. Time now 2014-Nov-27 10:40 UTC.
Position N 51°15' E 004°22'.

Length 120 m; draft 7.4 m.

Type: Tanker. MMSI: 255623000.

Date/timePositionNaut miles runAvg speedWind from/ knotsBaromVisibWave heightAir tempDewpointWater temp
2014-Nov-27 10:33N 51°15' E 004°22'0 0.0
2014-Nov-27 09:33N 51°15' E 004°22'0 0.0
2014-Nov-27 08:33N 51°15' E 004°22'0 0.0
2014-Nov-27 07:33N 51°15' E 004°22'0 0.0
2014-Nov-27 06:33N 51°15' E 004°22'0 0.0
2014-Nov-27 05:33N 51°15' E 004°22'0 0.0
2014-Nov-27 04:33N 51°15' E 004°22'0 0.0
2014-Nov-27 03:33N 51°15' E 004°22'0 0.0
2014-Nov-27 02:33N 51°15' E 004°22'0 0.0
2014-Nov-27 01:33N 51°15' E 004°22'0 0.0
2014-Nov-27 00:33N 51°15' E 004°22'0 0.0
2014-Nov-26 23:33N 51°15' E 004°22'0 0.4
2014-Nov-26 22:33N 51°15' E 004°22'0 0.0
2014-Nov-26 21:33N 51°15' E 004°22'0 0.0
2014-Nov-26 20:33N 51°15' E 004°22'0 0.0
2014-Nov-26 19:33N 51°15' E 004°22'0 0.0
2014-Nov-26 18:33N 51°15' E 004°22'0 0.0
2014-Nov-26 17:33N 51°15' E 004°22'0 0.0
2014-Nov-26 16:33N 51°15' E 004°22'0 0.0
2014-Nov-26 15:33N 51°15' E 004°22'0 0.0
2014-Nov-26 14:33N 51°15' E 004°22'0 0.0
2014-Nov-26 13:33N 51°15' E 004°22'0 0.0
2014-Nov-26 12:33N 51°15' E 004°22'0 0.0
2014-Nov-26 11:33N 51°15' E 004°22'0 0.0
2014-Nov-26 10:33N 51°15' E 004°22'0 0.0
2014-Nov-26 09:33N 51°15' E 004°22'0 0.0
2014-Nov-26 08:33N 51°15' E 004°22'0 0.0
2014-Nov-26 07:33N 51°15' E 004°22'0 0.0
2014-Nov-26 06:33N 51°15' E 004°22'0 0.0
2014-Nov-26 05:33N 51°15' E 004°22'0 0.0
2014-Nov-26 04:33N 51°15' E 004°22'0 0.0
2014-Nov-26 03:33N 51°15' E 004°22'0 0.0
2014-Nov-26 02:33N 51°15' E 004°22'0 0.0
2014-Nov-26 01:33N 51°15' E 004°22'0 0.0
2014-Nov-26 00:33N 51°15' E 004°22'0 0.0
2014-Nov-25 23:33N 51°15' E 004°22'0 0.0
2014-Nov-25 22:33N 51°15' E 004°22'2 2.2
2014-Nov-25 21:33N 51°17' E 004°20'4 4.3
2014-Nov-25 20:33N 51°21' E 004°17'0 0.0
2014-Nov-25 19:33N 51°21' E 004°17'0 0.2
2014-Nov-25 18:34N 51°21' E 004°17'6 5.9
2014-Nov-25 17:33N 51°22' E 004°08'7 6.7
2014-Nov-25 16:33N 51°23' E 003°57'9 9.2
2014-Nov-25 15:33N 51°25' E 003°42'8 8.5
2014-Nov-25 14:33N 51°29' E 003°30'1111.0
2014-Nov-25 13:33N 51°38' E 003°21'10 9.2
2014-Nov-25 12:29N 51°48' E 003°19'2 1.8
2014-Nov-25 11:20N 51°47' E 003°22'0 0.0
2014-Nov-25 10:29N 51°47' E 003°22'0 0.0
2014-Nov-25 09:32N 51°47' E 003°22'0 0.1
2014-Nov-25 07:32N 51°47' E 003°22'0 0.1
2014-Nov-25 06:29N 51°47' E 003°22'0 0.1
2014-Nov-25 05:29N 51°47' E 003°22'0 0.0
2014-Nov-25 04:19N 51°47' E 003°22'0 0.0
2014-Nov-25 03:31N 51°47' E 003°22'0 0.1
2014-Nov-25 00:25N 51°47' E 003°22'0 0.0
2014-Nov-24 23:10N 51°47' E 003°22'0 0.0
2014-Nov-24 22:31N 51°47' E 003°22'0 0.0
2014-Nov-24 21:31N 51°47' E 003°22'0 0.0
2014-Nov-24 20:28N 51°47' E 003°22'0 0.0
2014-Nov-24 18:28N 51°47' E 003°22'0 0.1
2014-Nov-24 17:19N 51°47' E 003°22'0 0.0
2014-Nov-24 11:16N 51°47' E 003°22'0 0.0
2014-Nov-23 21:03N 51°47' E 003°22'0 0.0
2014-Nov-23 20:33N 51°47' E 003°22'0 0.0
2014-Nov-23 19:27N 51°47' E 003°22'0 0.2
2014-Nov-23 18:32N 51°47' E 003°22'10010.7
2014-Nov-23 09:11N 53°19' E 004°29'33611.0
2014-Nov-22 02:28N 57°47' E 010°27'1213.2
2014-Nov-22 01:33N 57°49' E 010°50'1313.2
2014-Nov-22 00:33N 57°39' E 011°07'1313.1
2014-Nov-21 23:33N 57°29' E 011°23'6412.7
2014-Nov-21 18:33N 56°29' E 012°01'1212.5
2014-Nov-21 17:33N 56°19' E 012°15'1313.0
2014-Nov-21 16:33N 56°09' E 012°30'1312.8
2014-Nov-21 15:33N 55°59' E 012°42'1212.3
2014-Nov-21 14:33N 55°46' E 012°42'1211.6
2014-Nov-21 13:33N 55°35' E 012°42'1111.2
2014-Nov-21 12:33N 55°24' E 012°41'1010.3
2014-Nov-21 11:33N 55°16' E 012°53'1313.1
2014-Nov-21 10:33N 55°15' E 013°16'3812.6
2014-Nov-21 07:33N 55°18' E 014°22'1413.1
2014-Nov-21 06:28N 55°28' E 014°40'1213.3
2014-Nov-21 05:33N 55°34' E 014°58'12412.3
2014-Nov-20 19:29N 57°12' E 017°16'1313.3
2014-Nov-20 18:31N 57°25' E 017°21'  
Track history (hours):
 
Tides and Currents Weather Stations Pressure Air Temp Water Temp Dewpoint Dewpoint Depression Visibility Wind Speed Wind Dir Waves Ship Positions

Amarant

Last reported at 2014-Nov-27 10:33 UTC. Time now 2014-Nov-27 10:40 UTC.
Position N 51°15' E 004°22'.

Length 120 m; draft 7.4 m.

Type: Tanker. MMSI: 255623000.

Date/timePositionNaut miles runAvg speedWind from/ knotsBaromVisibWave heightAir tempDewpointWater temp
2014-Nov-27 10:33N 51°15' E 004°22'0 0.0
2014-Nov-27 09:33N 51°15' E 004°22'0 0.0
2014-Nov-27 08:33N 51°15' E 004°22'0 0.0
2014-Nov-27 07:33N 51°15' E 004°22'0 0.0
2014-Nov-27 06:33N 51°15' E 004°22'0 0.0
2014-Nov-27 05:33N 51°15' E 004°22'0 0.0
2014-Nov-27 04:33N 51°15' E 004°22'0 0.0
2014-Nov-27 03:33N 51°15' E 004°22'0 0.0
2014-Nov-27 02:33N 51°15' E 004°22'0 0.0
2014-Nov-27 01:33N 51°15' E 004°22'0 0.0
2014-Nov-27 00:33N 51°15' E 004°22'0 0.0
2014-Nov-26 23:33N 51°15' E 004°22'0 0.4
2014-Nov-26 22:33N 51°15' E 004°22'0 0.0
2014-Nov-26 21:33N 51°15' E 004°22'0 0.0
2014-Nov-26 20:33N 51°15' E 004°22'0 0.0
2014-Nov-26 19:33N 51°15' E 004°22'0 0.0
2014-Nov-26 18:33N 51°15' E 004°22'0 0.0
2014-Nov-26 17:33N 51°15' E 004°22'0 0.0
2014-Nov-26 16:33N 51°15' E 004°22'0 0.0
2014-Nov-26 15:33N 51°15' E 004°22'0 0.0
2014-Nov-26 14:33N 51°15' E 004°22'0 0.0
2014-Nov-26 13:33N 51°15' E 004°22'0 0.0
2014-Nov-26 12:33N 51°15' E 004°22'0 0.0
2014-Nov-26 11:33N 51°15' E 004°22'0 0.0
2014-Nov-26 10:33N 51°15' E 004°22'0 0.0
2014-Nov-26 09:33N 51°15' E 004°22'0 0.0
2014-Nov-26 08:33N 51°15' E 004°22'0 0.0
2014-Nov-26 07:33N 51°15' E 004°22'0 0.0
2014-Nov-26 06:33N 51°15' E 004°22'0 0.0
2014-Nov-26 05:33N 51°15' E 004°22'0 0.0
2014-Nov-26 04:33N 51°15' E 004°22'0 0.0
2014-Nov-26 03:33N 51°15' E 004°22'0 0.0
2014-Nov-26 02:33N 51°15' E 004°22'0 0.0
2014-Nov-26 01:33N 51°15' E 004°22'0 0.0
2014-Nov-26 00:33N 51°15' E 004°22'0 0.0
2014-Nov-25 23:33N 51°15' E 004°22'0 0.0
2014-Nov-25 22:33N 51°15' E 004°22'2 2.2
2014-Nov-25 21:33N 51°17' E 004°20'4 4.3
2014-Nov-25 20:33N 51°21' E 004°17'0 0.0
2014-Nov-25 19:33N 51°21' E 004°17'0 0.2
2014-Nov-25 18:34N 51°21' E 004°17'6 5.9
2014-Nov-25 17:33N 51°22' E 004°08'7 6.7
2014-Nov-25 16:33N 51°23' E 003°57'9 9.2
2014-Nov-25 15:33N 51°25' E 003°42'8 8.5
2014-Nov-25 14:33N 51°29' E 003°30'1111.0
2014-Nov-25 13:33N 51°38' E 003°21'10 9.2
2014-Nov-25 12:29N 51°48' E 003°19'2 1.8
2014-Nov-25 11:20N 51°47' E 003°22'0 0.0
2014-Nov-25 10:29N 51°47' E 003°22'0 0.0
2014-Nov-25 09:32N 51°47' E 003°22'0 0.1
2014-Nov-25 07:32N 51°47' E 003°22'0 0.1
2014-Nov-25 06:29N 51°47' E 003°22'0 0.1
2014-Nov-25 05:29N 51°47' E 003°22'0 0.0
2014-Nov-25 04:19N 51°47' E 003°22'0 0.0
2014-Nov-25 03:31N 51°47' E 003°22'0 0.1
2014-Nov-25 00:25N 51°47' E 003°22'0 0.0
2014-Nov-24 23:10N 51°47' E 003°22'0 0.0
2014-Nov-24 22:31N 51°47' E 003°22'0 0.0
2014-Nov-24 21:31N 51°47' E 003°22'0 0.0
2014-Nov-24 20:28N 51°47' E 003°22'0 0.0
2014-Nov-24 18:28N 51°47' E 003°22'0 0.1
2014-Nov-24 17:19N 51°47' E 003°22'0 0.0
2014-Nov-24 11:16N 51°47' E 003°22'0 0.0
2014-Nov-23 21:03N 51°47' E 003°22'0 0.0
2014-Nov-23 20:33N 51°47' E 003°22'0 0.0
2014-Nov-23 19:27N 51°47' E 003°22'0 0.2
2014-Nov-23 18:32N 51°47' E 003°22'10010.7
2014-Nov-23 09:11N 53°19' E 004°29'33611.0
2014-Nov-22 02:28N 57°47' E 010°27'1213.2
2014-Nov-22 01:33N 57°49' E 010°50'1313.2
2014-Nov-22 00:33N 57°39' E 011°07'1313.1
2014-Nov-21 23:33N 57°29' E 011°23'6412.7
2014-Nov-21 18:33N 56°29' E 012°01'1212.5
2014-Nov-21 17:33N 56°19' E 012°15'1313.0
2014-Nov-21 16:33N 56°09' E 012°30'1312.8
2014-Nov-21 15:33N 55°59' E 012°42'1212.3
2014-Nov-21 14:33N 55°46' E 012°42'1211.6
2014-Nov-21 13:33N 55°35' E 012°42'1111.2
2014-Nov-21 12:33N 55°24' E 012°41'1010.3
2014-Nov-21 11:33N 55°16' E 012°53'1313.1
2014-Nov-21 10:33N 55°15' E 013°16'3812.6
2014-Nov-21 07:33N 55°18' E 014°22'1413.1
2014-Nov-21 06:28N 55°28' E 014°40'1213.3
2014-Nov-21 05:33N 55°34' E 014°58'12412.3
2014-Nov-20 19:29N 57°12' E 017°16'1313.3
2014-Nov-20 18:31N 57°25' E 017°21'  

Dump ship's entire track history